Time;durP1;ratioP1;P1;durP2;ratioP2;P2;SDS_P1;SDS_P2;PMS_P1;PMS_P2;Temp;Humidity;BMP_temperature;BMP_pressure;BME280_temperature;BME280_humidity;BME280_pressure;Samples;Min_cycle;Max_cycle;Signal;HPM_P1;HPM_P2
2021/07/13 00:00:09;;;;;;;6.35;2.58;;;;;;;;;;5014715;28;20045;-60
2021/07/13 00:02:35;;;;;;;5.97;2.55;;;;;;;;;;5013944;28;20037;-58
2021/07/13 00:05:01;;;;;;;8.75;2.40;;;;;;;;;;5010057;28;20042;-58
2021/07/13 00:07:27;;;;;;;5.25;2.50;;;;;;;;;;5012217;28;20144;-59
2021/07/13 00:09:53;;;;;;;4.35;2.55;;;;;;;;;;5013763;28;20178;-59
2021/07/13 00:12:19;;;;;;;6.38;3.15;;;;;;;;;;5012741;28;20053;-60
2021/07/13 00:14:44;;;;;;;6.13;2.78;;;;;;;;;;5013498;28;20127;-59
2021/07/13 00:17:10;;;;;;;4.85;2.40;;;;;;;;;;5013151;28;20139;-60
2021/07/13 00:19:36;;;;;;;7.85;2.70;;;;;;;;;;5013709;28;20045;-61
2021/07/13 00:22:03;;;;;;;5.85;2.70;;;;;;;;;;5014396;28;20648;-61
2021/07/13 00:24:29;;;;;;;7.97;2.55;;;;;;;;;;5010834;28;20049;-61
2021/07/13 00:26:55;;;;;;;5.05;2.42;;;;;;;;;;5013969;28;20041;-61
2021/07/13 00:29:20;;;;;;;4.57;2.45;;;;;;;;;;5010072;28;20407;-61
2021/07/13 00:31:46;;;;;;;6.38;3.17;;;;;;;;;;5012688;28;20054;-60
2021/07/13 00:34:12;;;;;;;5.88;3.05;;;;;;;;;;5011156;28;20037;-60
2021/07/13 00:36:38;;;;;;;6.57;2.90;;;;;;;;;;5010934;28;20046;-60
2021/07/13 00:39:03;;;;;;;5.82;2.85;;;;;;;;;;5011732;28;20667;-60
2021/07/13 00:41:32;;;;;;;7.20;3.25;;;;;;;;;;5014215;28;20407;-61
2021/07/13 00:43:58;;;;;;;4.85;2.47;;;;;;;;;;5026435;28;20041;-61
2021/07/13 00:46:24;;;;;;;6.85;2.72;;;;;;;;;;5012245;28;20041;-60
2021/07/13 00:48:50;;;;;;;6.07;2.95;;;;;;;;;;5012504;28;20045;-61
2021/07/13 00:51:16;;;;;;;7.78;2.90;;;;;;;;;;5012089;28;20179;-61
2021/07/13 00:53:43;;;;;;;7.10;3.47;;;;;;;;;;5012246;28;20044;-61
2021/07/13 00:56:09;;;;;;;9.20;2.75;;;;;;;;;;5011808;28;20041;-60
2021/07/13 00:58:35;;;;;;;5.20;2.88;;;;;;;;;;5010870;28;20037;-60
2021/07/13 01:01:01;;;;;;;4.93;2.50;;;;;;;;;;5011996;28;20045;-59
2021/07/13 01:03:27;;;;;;;5.65;2.88;;;;;;;;;;5012605;28;20061;-61
2021/07/13 01:05:52;;;;;;;5.38;2.60;;;;;;;;;;5012348;28;20045;-61
2021/07/13 01:08:18;;;;;;;10.20;3.17;;;;;;;;;;5009033;28;20446;-59
2021/07/13 01:10:49;;;;;;;6.05;2.50;;;;;;;;;;5013919;28;20425;-61
2021/07/13 01:13:33;;;;;;;7.80;2.92;;;;;;;;;;5010981;28;20561;-62
2021/07/13 01:16:02;;;;;;;4.90;2.60;;;;;;;;;;5012525;28;20073;-62
2021/07/13 01:18:30;;;;;;;5.72;2.47;;;;;;;;;;5011642;28;20092;-61
2021/07/13 01:21:14;;;;;;;6.35;3.13;;;;;;;;;;5013259;28;20037;-59
2021/07/13 01:24:09;;;;;;;6.93;3.08;;;;;;;;;;5012373;28;20061;-60
2021/07/13 01:26:55;;;;;;;5.68;3.20;;;;;;;;;;4998160;28;20366;-60
2021/07/13 01:29:23;;;;;;;5.88;2.83;;;;;;;;;;4974372;28;20037;-60
2021/07/13 01:31:49;;;;;;;8.07;3.13;;;;;;;;;;5011584;28;20040;-60
2021/07/13 01:34:17;;;;;;;8.90;3.53;;;;;;;;;;5012703;28;20041;-60
2021/07/13 01:36:53;;;;;;;8.27;2.80;;;;;;;;;;5010171;28;20558;-60
2021/07/13 01:39:19;;;;;;;7.20;2.88;;;;;;;;;;5007154;28;20551;-60
2021/07/13 01:41:49;;;;;;;5.80;3.17;;;;;;;;;;5012630;28;20057;-59
2021/07/13 01:44:16;;;;;;;13.45;3.40;;;;;;;;;;5010966;28;20181;-59
2021/07/13 01:46:42;;;;;;;5.72;3.05;;;;;;;;;;5011743;28;20434;-58
2021/07/13 01:49:08;;;;;;;13.85;3.30;;;;;;;;;;5010121;28;20041;-59
2021/07/13 01:51:35;;;;;;;5.68;2.80;;;;;;;;;;5011747;28;20049;-60
2021/07/13 01:54:06;;;;;;;9.93;3.15;;;;;;;;;;5010538;28;20393;-60
2021/07/13 01:56:32;;;;;;;7.88;3.45;;;;;;;;;;5010661;28;20383;-59
2021/07/13 01:58:59;;;;;;;7.53;3.40;;;;;;;;;;5009974;28;20046;-58
2021/07/13 02:01:25;;;;;;;8.27;3.30;;;;;;;;;;5009981;28;20077;-60
2021/07/13 02:03:52;;;;;;;7.85;3.47;;;;;;;;;;5013500;28;20121;-57
2021/07/13 02:06:20;;;;;;;6.63;3.22;;;;;;;;;;5011268;28;20042;-58
2021/07/13 02:08:48;;;;;;;7.18;3.20;;;;;;;;;;5010799;28;20037;-60
2021/07/13 02:11:14;;;;;;;6.57;2.90;;;;;;;;;;5025827;28;20053;-59
2021/07/13 02:13:40;;;;;;;7.82;3.35;;;;;;;;;;5008349;28;20057;-60
2021/07/13 02:16:06;;;;;;;8.38;3.53;;;;;;;;;;5010980;28;20125;-59
2021/07/13 02:18:32;;;;;;;5.57;2.92;;;;;;;;;;5010262;28;20085;-61
2021/07/13 02:20:58;;;;;;;8.15;3.40;;;;;;;;;;5011411;28;20041;-60
2021/07/13 02:23:24;;;;;;;7.38;3.63;;;;;;;;;;5011469;28;20454;-60
2021/07/13 02:25:53;;;;;;;9.50;3.30;;;;;;;;;;5015191;28;20124;-59
2021/07/13 02:28:21;;;;;;;8.23;3.47;;;;;;;;;;5012317;28;20050;-59
2021/07/13 02:30:49;;;;;;;5.47;3.00;;;;;;;;;;5012097;28;20207;-60
2021/07/13 02:33:27;;;;;;;6.85;3.17;;;;;;;;;;5014538;28;20044;-61
2021/07/13 02:35:58;;;;;;;8.25;2.90;;;;;;;;;;5021261;28;20038;-60
2021/07/13 02:38:24;;;;;;;8.02;3.42;;;;;;;;;;5036647;28;20561;-60
2021/07/13 02:40:51;;;;;;;5.05;2.70;;;;;;;;;;5021150;28;20054;-60
2021/07/13 02:43:17;;;;;;;6.28;3.28;;;;;;;;;;5026722;28;20088;-60
2021/07/13 02:45:45;;;;;;;9.32;3.50;;;;;;;;;;5032682;28;20049;-59
2021/07/13 02:48:11;;;;;;;8.68;4.43;;;;;;;;;;5045318;28;20103;-60
2021/07/13 02:50:38;;;;;;;7.57;3.17;;;;;;;;;;5026745;28;20080;-59
2021/07/13 02:53:05;;;;;;;9.23;2.90;;;;;;;;;;5021727;28;20041;-58
2021/07/13 02:55:31;;;;;;;8.55;3.05;;;;;;;;;;5018534;28;20065;-57
2021/07/13 02:57:59;;;;;;;6.00;3.10;;;;;;;;;;5018975;28;20042;-58
2021/07/13 03:00:25;;;;;;;5.70;3.17;;;;;;;;;;5018021;28;20106;-60
2021/07/13 03:02:51;;;;;;;6.15;3.15;;;;;;;;;;5016560;28;20046;-60
2021/07/13 03:05:18;;;;;;;6.05;2.97;;;;;;;;;;5020307;28;20076;-59
2021/07/13 03:07:46;;;;;;;6.72;3.30;;;;;;;;;;5015159;28;20069;-60
2021/07/13 03:10:12;;;;;;;8.27;3.22;;;;;;;;;;5017997;28;20056;-59
2021/07/13 03:12:41;;;;;;;11.23;3.53;;;;;;;;;;5014680;28;20050;-59
2021/07/13 03:15:08;;;;;;;7.53;3.13;;;;;;;;;;5013696;28;20522;-58
2021/07/13 03:17:34;;;;;;;9.60;3.17;;;;;;;;;;5012874;28;20044;-58
2021/07/13 03:20:00;;;;;;;5.35;2.90;;;;;;;;;;5014639;28;20049;-59
2021/07/13 03:22:31;;;;;;;8.43;3.00;;;;;;;;;;5010647;28;20451;-59
2021/07/13 03:24:58;;;;;;;13.27;4.30;;;;;;;;;;5013006;28;20049;-59
2021/07/13 03:27:24;;;;;;;6.25;3.10;;;;;;;;;;5012413;28;20122;-59
2021/07/13 03:29:51;;;;;;;8.40;3.53;;;;;;;;;;5016808;28;20033;-59
2021/07/13 03:32:17;;;;;;;6.63;3.22;;;;;;;;;;5013907;28;20546;-59
2021/07/13 03:34:44;;;;;;;7.70;3.25;;;;;;;;;;5011323;28;20080;-60
2021/07/13 03:37:10;;;;;;;8.63;3.55;;;;;;;;;;5009962;28;20446;-59
2021/07/13 03:39:36;;;;;;;7.55;3.00;;;;;;;;;;5012179;28;20038;-59
2021/07/13 03:42:02;;;;;;;7.68;3.42;;;;;;;;;;5009576;28;20144;-60
2021/07/13 03:44:28;;;;;;;5.50;2.60;;;;;;;;;;5011445;28;21953;-58
2021/07/13 03:46:54;;;;;;;5.63;2.80;;;;;;;;;;5012772;28;20030;-59
2021/07/13 03:49:22;;;;;;;10.68;3.13;;;;;;;;;;5010703;28;20082;-59
2021/07/13 03:51:48;;;;;;;10.43;3.22;;;;;;;;;;5012631;28;20044;-59
2021/07/13 03:54:15;;;;;;;7.45;3.00;;;;;;;;;;5012874;28;20041;-57
2021/07/13 03:56:41;;;;;;;7.03;2.75;;;;;;;;;;5011817;28;20053;-57
2021/07/13 03:59:08;;;;;;;11.68;3.60;;;;;;;;;;5013045;28;20037;-58
2021/07/13 04:01:34;;;;;;;8.07;3.65;;;;;;;;;;5012345;28;20045;-58
2021/07/13 04:04:00;;;;;;;7.10;3.05;;;;;;;;;;5014106;28;20711;-57
2021/07/13 04:06:26;;;;;;;6.95;2.92;;;;;;;;;;5011115;28;20687;-60
2021/07/13 04:08:52;;;;;;;5.85;2.72;;;;;;;;;;5014548;28;20045;-58
2021/07/13 04:11:18;;;;;;;7.95;3.00;;;;;;;;;;5013889;28;20515;-60
2021/07/13 04:13:44;;;;;;;5.75;3.08;;;;;;;;;;5012230;28;20129;-59
2021/07/13 04:16:10;;;;;;;6.43;2.80;;;;;;;;;;5012977;28;20077;-59
2021/07/13 04:18:35;;;;;;;6.60;3.13;;;;;;;;;;5011151;28;20054;-59
2021/07/13 04:21:01;;;;;;;6.25;3.00;;;;;;;;;;5027469;28;20046;-59
2021/07/13 04:23:27;;;;;;;6.80;3.00;;;;;;;;;;5014502;28;20048;-58
2021/07/13 04:25:53;;;;;;;10.40;3.30;;;;;;;;;;5015631;28;20044;-59
2021/07/13 04:28:19;;;;;;;5.57;3.08;;;;;;;;;;5015068;28;20052;-58
2021/07/13 04:30:44;;;;;;;6.93;2.95;;;;;;;;;;5012178;28;21829;-59
2021/07/13 04:33:10;;;;;;;6.97;3.05;;;;;;;;;;5012723;28;20505;-58
2021/07/13 04:35:36;;;;;;;6.90;2.70;;;;;;;;;;5011064;28;20566;-58
2021/07/13 04:38:02;;;;;;;7.35;3.08;;;;;;;;;;5012655;28;20049;-57
2021/07/13 04:40:28;;;;;;;9.60;3.40;;;;;;;;;;5005240;28;20065;-60
2021/07/13 04:42:53;;;;;;;7.60;3.42;;;;;;;;;;5011355;28;20406;-59
2021/07/13 04:45:19;;;;;;;6.45;3.00;;;;;;;;;;5011173;28;20083;-57
2021/07/13 04:47:45;;;;;;;7.43;3.38;;;;;;;;;;5014620;28;20049;-59
2021/07/13 04:50:14;;;;;;;6.15;3.22;;;;;;;;;;5016199;28;20103;-56
2021/07/13 04:52:40;;;;;;;7.93;3.08;;;;;;;;;;5025453;28;20125;-61
2021/07/13 04:55:06;;;;;;;8.23;2.75;;;;;;;;;;5025191;28;20128;-59
2021/07/13 04:57:32;;;;;;;11.15;3.13;;;;;;;;;;5011390;28;20569;-58
2021/07/13 04:59:58;;;;;;;8.15;3.30;;;;;;;;;;5014226;28;20041;-58
2021/07/13 05:02:24;;;;;;;7.45;2.80;;;;;;;;;;5012897;28;20141;-58
2021/07/13 05:04:49;;;;;;;6.50;2.78;;;;;;;;;;5014410;28;20049;-58
2021/07/13 05:07:15;;;;;;;6.95;3.22;;;;;;;;;;5011125;28;20443;-59
2021/07/13 05:09:41;;;;;;;6.65;2.75;;;;;;;;;;5013644;28;20534;-57
2021/07/13 05:12:07;;;;;;;9.38;3.25;;;;;;;;;;5014290;28;20081;-58
2021/07/13 05:14:34;;;;;;;6.80;3.35;;;;;;;;;;5012402;28;20931;-58
2021/07/13 05:17:00;;;;;;;6.72;3.20;;;;;;;;;;5027368;28;20041;-56
2021/07/13 05:19:25;;;;;;;8.00;2.80;;;;;;;;;;5013219;28;20032;-58
2021/07/13 05:22:01;;;;;;;5.68;3.15;;;;;;;;;;5016177;28;20045;-59
2021/07/13 05:24:27;;;;;;;7.03;3.17;;;;;;;;;;5011873;28;20041;-56
2021/07/13 05:26:53;;;;;;;9.85;3.22;;;;;;;;;;5014923;28;20041;-58
2021/07/13 05:29:19;;;;;;;6.72;2.65;;;;;;;;;;5013571;28;20053;-59
2021/07/13 05:31:46;;;;;;;6.60;3.13;;;;;;;;;;5012563;28;21051;-57
2021/07/13 05:34:12;;;;;;;6.95;2.83;;;;;;;;;;5011535;28;20057;-59
2021/07/13 05:36:37;;;;;;;16.92;3.60;;;;;;;;;;5011497;28;20041;-58
2021/07/13 05:39:07;;;;;;;5.65;2.92;;;;;;;;;;5009961;28;20041;-57
2021/07/13 05:41:36;;;;;;;6.55;3.30;;;;;;;;;;5010354;28;20100;-59
2021/07/13 05:44:02;;;;;;;9.40;3.00;;;;;;;;;;5013760;28;20071;-58
2021/07/13 05:46:28;;;;;;;9.48;3.22;;;;;;;;;;5012565;28;20152;-58
2021/07/13 05:48:53;;;;;;;7.75;3.25;;;;;;;;;;5012837;28;20561;-57
2021/07/13 05:51:19;;;;;;;8.02;3.85;;;;;;;;;;5012467;28;20080;-58
2021/07/13 05:53:45;;;;;;;7.35;3.47;;;;;;;;;;5011887;28;20125;-58
2021/07/13 05:56:11;;;;;;;5.97;3.35;;;;;;;;;;5013972;28;20044;-57
2021/07/13 05:58:37;;;;;;;9.10;3.60;;;;;;;;;;5010406;28;20049;-58
2021/07/13 06:01:04;;;;;;;7.97;3.35;;;;;;;;;;5012436;28;20041;-59
2021/07/13 06:03:29;;;;;;;12.55;4.47;;;;;;;;;;5010653;28;20046;-59
2021/07/13 06:05:55;;;;;;;8.25;3.95;;;;;;;;;;5014346;28;20036;-59
2021/07/13 06:08:21;;;;;;;6.63;3.63;;;;;;;;;;5011858;28;20042;-57
2021/07/13 06:10:47;;;;;;;8.32;3.70;;;;;;;;;;5010884;28;20071;-58
2021/07/13 06:13:13;;;;;;;8.45;4.00;;;;;;;;;;5011452;28;20107;-60
2021/07/13 06:15:38;;;;;;;9.57;4.10;;;;;;;;;;5013345;28;20045;-55
2021/07/13 06:18:04;;;;;;;7.50;3.67;;;;;;;;;;5010707;28;20398;-59
2021/07/13 06:20:30;;;;;;;10.18;3.75;;;;;;;;;;5009240;28;20060;-55
2021/07/13 06:22:56;;;;;;;7.80;3.42;;;;;;;;;;5011193;28;20034;-58
2021/07/13 06:25:21;;;;;;;7.00;3.67;;;;;;;;;;5010594;28;20049;-57
2021/07/13 06:27:49;;;;;;;13.25;3.65;;;;;;;;;;5008926;28;20443;-57
2021/07/13 06:30:15;;;;;;;8.18;3.58;;;;;;;;;;5010431;28;20042;-58
2021/07/13 06:32:40;;;;;;;12.48;4.15;;;;;;;;;;5007589;28;20037;-56
2021/07/13 06:35:06;;;;;;;8.57;3.95;;;;;;;;;;5011861;28;20065;-54
2021/07/13 06:37:32;;;;;;;9.75;3.83;;;;;;;;;;5008843;28;20037;-58
2021/07/13 06:39:58;;;;;;;7.20;3.70;;;;;;;;;;5008915;28;20049;-57
2021/07/13 06:42:24;;;;;;;6.63;3.95;;;;;;;;;;5009614;28;20130;-57
2021/07/13 06:44:49;;;;;;;7.22;3.83;;;;;;;;;;5010824;28;20506;-57
2021/07/13 06:47:15;;;;;;;6.80;3.28;;;;;;;;;;5009224;28;20048;-57
2021/07/13 06:49:41;;;;;;;7.45;3.47;;;;;;;;;;5008919;28;20392;-56
2021/07/13 06:52:07;;;;;;;6.93;3.17;;;;;;;;;;5010294;28;20871;-56
2021/07/13 06:54:33;;;;;;;7.32;3.42;;;;;;;;;;5008340;28;20449;-59
2021/07/13 06:56:58;;;;;;;6.45;3.28;;;;;;;;;;5023396;28;20068;-56
2021/07/13 06:59:24;;;;;;;6.03;3.00;;;;;;;;;;5007547;28;20056;-57
2021/07/13 07:01:50;;;;;;;6.05;3.15;;;;;;;;;;5009594;28;20507;-57
2021/07/13 07:04:16;;;;;;;7.68;3.40;;;;;;;;;;5010341;28;20036;-58
2021/07/13 07:06:42;;;;;;;6.95;3.35;;;;;;;;;;5010158;28;20057;-59
2021/07/13 07:09:07;;;;;;;8.55;3.53;;;;;;;;;;5010305;28;20033;-58
2021/07/13 07:11:33;;;;;;;9.10;3.30;;;;;;;;;;5004080;28;20046;-57
2021/07/13 07:13:59;;;;;;;10.00;3.20;;;;;;;;;;5009906;28;20178;-58
2021/07/13 07:16:25;;;;;;;9.57;3.40;;;;;;;;;;5008342;28;20117;-57
2021/07/13 07:18:50;;;;;;;6.70;3.60;;;;;;;;;;5011250;28;22030;-56
2021/07/13 07:21:16;;;;;;;7.05;3.30;;;;;;;;;;5016197;28;20168;-58
2021/07/13 07:23:42;;;;;;;8.25;3.53;;;;;;;;;;5012628;28;21186;-58
2021/07/13 07:26:07;;;;;;;8.45;3.90;;;;;;;;;;5016120;28;20045;-59
2021/07/13 07:28:34;;;;;;;8.63;3.53;;;;;;;;;;5011846;28;20054;-57
2021/07/13 07:30:59;;;;;;;10.48;3.55;;;;;;;;;;5012631;28;20046;-56
2021/07/13 07:33:25;;;;;;;6.25;3.80;;;;;;;;;;5012199;28;20458;-57
2021/07/13 07:35:51;;;;;;;14.95;3.65;;;;;;;;;;5014351;28;20053;-56
2021/07/13 07:38:17;;;;;;;7.00;3.40;;;;;;;;;;5013915;28;20359;-56
2021/07/13 07:40:43;;;;;;;8.45;3.70;;;;;;;;;;5011947;28;20053;-58
2021/07/13 07:43:09;;;;;;;6.78;3.60;;;;;;;;;;5013960;28;20489;-57
2021/07/13 07:45:35;;;;;;;7.70;4.00;;;;;;;;;;5012101;28;20029;-58
2021/07/13 07:48:01;;;;;;;8.30;4.03;;;;;;;;;;5014507;28;20047;-58
2021/07/13 07:50:27;;;;;;;7.80;4.30;;;;;;;;;;5012809;28;20636;-56
2021/07/13 07:52:53;;;;;;;7.72;4.03;;;;;;;;;;5011920;28;20065;-56
2021/07/13 07:55:24;;;;;;;10.32;4.10;;;;;;;;;;5010902;28;20579;-54
2021/07/13 07:57:50;;;;;;;8.43;4.18;;;;;;;;;;5011854;28;20154;-57
2021/07/13 08:00:17;;;;;;;8.48;4.28;;;;;;;;;;5011031;28;20106;-56
2021/07/13 08:02:43;;;;;;;8.10;4.28;;;;;;;;;;5009431;28;20038;-53
2021/07/13 08:05:10;;;;;;;8.32;3.85;;;;;;;;;;5012510;28;20049;-57
2021/07/13 08:07:36;;;;;;;9.50;4.13;;;;;;;;;;5005717;28;20100;-55
2021/07/13 08:10:03;;;;;;;9.48;4.20;;;;;;;;;;5025483;28;20132;-55
2021/07/13 08:12:29;;;;;;;7.72;4.03;;;;;;;;;;5010757;28;20060;-56
2021/07/13 08:14:55;;;;;;;7.18;4.22;;;;;;;;;;5013855;28;20045;-55
2021/07/13 08:17:20;;;;;;;7.70;4.25;;;;;;;;;;5015508;28;20042;-56
2021/07/13 08:19:46;;;;;;;9.30;4.53;;;;;;;;;;5014145;28;20124;-54
2021/07/13 08:22:12;;;;;;;9.80;4.28;;;;;;;;;;5012166;28;20656;-57
2021/07/13 08:24:39;;;;;;;15.25;4.57;;;;;;;;;;5014024;28;20110;-56
2021/07/13 08:27:05;;;;;;;10.43;4.47;;;;;;;;;;5013756;28;20885;-56
2021/07/13 08:29:31;;;;;;;9.50;4.60;;;;;;;;;;5018395;28;20069;-58
2021/07/13 08:31:59;;;;;;;8.43;4.20;;;;;;;;;;5013986;28;20136;-56
2021/07/13 08:34:25;;;;;;;9.45;4.47;;;;;;;;;;5011642;28;20048;-57
2021/07/13 08:36:51;;;;;;;9.15;4.60;;;;;;;;;;5008894;28;20852;-56
2021/07/13 08:39:17;;;;;;;10.25;4.72;;;;;;;;;;5010971;28;20044;-59
2021/07/13 08:41:47;;;;;;;8.20;3.88;;;;;;;;;;5008868;28;20502;-57
2021/07/13 08:44:13;;;;;;;8.57;4.65;;;;;;;;;;5013018;28;20038;-56
2021/07/13 08:46:40;;;;;;;8.20;4.63;;;;;;;;;;5011123;28;20038;-56
2021/07/13 08:49:06;;;;;;;11.80;4.25;;;;;;;;;;5009372;28;20053;-56
2021/07/13 08:51:32;;;;;;;8.95;4.65;;;;;;;;;;5010633;28;20062;-57
2021/07/13 08:53:59;;;;;;;7.70;4.03;;;;;;;;;;5012601;28;20052;-56
2021/07/13 08:56:24;;;;;;;10.15;4.88;;;;;;;;;;5010857;28;20049;-56
2021/07/13 08:58:50;;;;;;;10.90;5.05;;;;;;;;;;5011607;28;20045;-56
2021/07/13 09:01:16;;;;;;;9.10;4.50;;;;;;;;;;5010759;28;20048;-55
2021/07/13 09:03:55;;;;;;;9.98;4.80;;;;;;;;;;5011837;28;20414;-56
2021/07/13 09:06:22;;;;;;;10.45;5.38;;;;;;;;;;5011421;28;20044;-56
2021/07/13 09:08:48;;;;;;;10.63;5.05;;;;;;;;;;5009986;28;20124;-57
2021/07/13 09:11:17;;;;;;;10.35;5.05;;;;;;;;;;5011898;28;20127;-56
2021/07/13 09:13:50;;;;;;;9.68;4.68;;;;;;;;;;5010571;28;20049;-54
2021/07/13 09:16:15;;;;;;;;;;;;;;;;;;5007470;28;20544;-53
2021/07/13 09:18:42;;;;;;;11.23;5.20;;;;;;;;;;5010448;28;20028;-57
2021/07/13 09:21:10;;;;;;;9.98;5.13;;;;;;;;;;5011639;28;20065;-54
2021/07/13 09:23:36;;;;;;;11.48;5.57;;;;;;;;;;5011867;28;20036;-56
2021/07/13 09:26:02;;;;;;;11.23;5.78;;;;;;;;;;5010045;28;20073;-56
2021/07/13 09:28:28;;;;;;;13.32;6.18;;;;;;;;;;5009291;28;20128;-56
2021/07/13 09:30:55;;;;;;;11.18;5.72;;;;;;;;;;5011014;28;20042;-59
2021/07/13 09:33:25;;;;;;;11.02;5.63;;;;;;;;;;5008167;28;20091;-56
2021/07/13 09:36:01;;;;;;;11.25;5.25;;;;;;;;;;5010986;28;20532;-57
2021/07/13 09:38:27;;;;;;;10.00;5.30;;;;;;;;;;5009706;28;20526;-59
2021/07/13 09:41:07;;;;;;;9.55;5.32;;;;;;;;;;5011331;28;20162;-57
2021/07/13 09:43:45;;;;;;;11.60;5.95;;;;;;;;;;5012505;28;20575;-56
2021/07/13 09:46:34;;;;;;;10.20;5.55;;;;;;;;;;5026437;28;20693;-57
2021/07/13 09:49:21;;;;;;;8.38;5.20;;;;;;;;;;5007603;28;20046;-55
2021/07/13 09:51:54;;;;;;;9.73;5.65;;;;;;;;;;5008947;28;20473;-56
2021/07/13 09:54:34;;;;;;;15.07;5.78;;;;;;;;;;5008737;28;20059;-56
2021/07/13 09:57:00;;;;;;;12.15;5.72;;;;;;;;;;5010928;28;20401;-56
2021/07/13 09:59:26;;;;;;;11.23;5.72;;;;;;;;;;5012864;28;20041;-54
2021/07/13 10:01:52;;;;;;;11.38;5.78;;;;;;;;;;5015788;28;20697;-55
2021/07/13 10:04:18;;;;;;;9.18;5.43;;;;;;;;;;5011061;28;20073;-55
2021/07/13 10:06:45;;;;;;;12.00;6.47;;;;;;;;;;5018125;28;20030;-55
2021/07/13 10:09:13;;;;;;;10.57;5.57;;;;;;;;;;5013585;28;20050;-55
2021/07/13 10:11:41;;;;;;;14.32;6.03;;;;;;;;;;5012155;28;20102;-55
2021/07/13 10:14:07;;;;;;;12.88;6.45;;;;;;;;;;5015564;28;20050;-55
2021/07/13 10:16:35;;;;;;;11.48;5.78;;;;;;;;;;5007325;28;20037;-56
2021/07/13 10:19:03;;;;;;;15.40;6.30;;;;;;;;;;5010689;28;20065;-57
2021/07/13 10:21:30;;;;;;;10.55;6.32;;;;;;;;;;5010585;28;20442;-57
2021/07/13 10:23:56;;;;;;;13.52;6.20;;;;;;;;;;5010624;28;20040;-56
2021/07/13 10:26:41;;;;;;;8.10;5.43;;;;;;;;;;5008459;28;20138;-56
2021/07/13 10:29:26;;;;;;;12.50;5.78;;;;;;;;;;5008063;28;20173;-58
2021/07/13 10:31:52;;;;;;;10.10;5.75;;;;;;;;;;5009741;28;20116;-57
2021/07/13 10:34:37;;;;;;;9.75;5.68;;;;;;;;;;5010125;28;20129;-57
2021/07/13 10:37:21;;;;;;;10.95;6.10;;;;;;;;;;5012484;28;20029;-55
2021/07/13 10:39:47;;;;;;;13.35;6.47;;;;;;;;;;5025960;28;20040;-56
2021/07/13 10:42:33;;;;;;;11.32;5.65;;;;;;;;;;5011682;28;20045;-56
2021/07/13 10:45:12;;;;;;;13.25;6.03;;;;;;;;;;5010491;28;20503;-57
2021/07/13 10:47:54;;;;;;;14.10;6.10;;;;;;;;;;5010599;28;20045;-57
2021/07/13 10:50:31;;;;;;;12.00;6.18;;;;;;;;;;5010710;28;20038;-56
2021/07/13 10:52:58;;;;;;;11.40;6.13;;;;;;;;;;5013365;28;20053;-54
2021/07/13 10:55:30;;;;;;;9.82;5.60;;;;;;;;;;5015757;28;20037;-56
2021/07/13 10:58:11;;;;;;;13.05;5.70;;;;;;;;;;5015294;28;20033;-57
2021/07/13 11:00:59;;;;;;;10.90;5.78;;;;;;;;;;5014236;28;20048;-56
2021/07/13 11:03:27;;;;;;;11.88;6.00;;;;;;;;;;5015458;28;20041;-57
2021/07/13 11:05:54;;;;;;;10.35;5.40;;;;;;;;;;5015609;28;20041;-55
2021/07/13 11:08:38;;;;;;;12.15;6.03;;;;;;;;;;5010986;28;20038;-59
2021/07/13 11:11:04;;;;;;;11.68;6.10;;;;;;;;;;5012923;28;20053;-57
2021/07/13 11:13:29;;;;;;;11.57;6.07;;;;;;;;;;5013026;28;20057;-57
2021/07/13 11:15:56;;;;;;;14.10;6.80;;;;;;;;;;5013373;28;20034;-57
2021/07/13 11:18:33;;;;;;;10.82;5.95;;;;;;;;;;5013221;28;20069;-56
2021/07/13 11:21:17;;;;;;;14.85;6.30;;;;;;;;;;5013095;28;20171;-57
2021/07/13 11:23:44;;;;;;;9.43;5.53;;;;;;;;;;5013075;28;20037;-56
2021/07/13 11:26:11;;;;;;;13.98;5.95;;;;;;;;;;5015997;28;20417;-54
2021/07/13 11:28:37;;;;;;;10.20;5.80;;;;;;;;;;5013120;28;21911;-54
2021/07/13 11:31:04;;;;;;;11.30;6.10;;;;;;;;;;5019574;28;20058;-56
2021/07/13 11:33:30;;;;;;;11.63;6.35;;;;;;;;;;5011807;28;20157;-56
2021/07/13 11:35:57;;;;;;;11.00;5.88;;;;;;;;;;5012881;28;20090;-56
2021/07/13 11:38:24;;;;;;;12.77;6.00;;;;;;;;;;5013003;28;20038;-58
2021/07/13 11:41:11;;;;;;;13.57;7.05;;;;;;;;;;5014337;28;20056;-57
2021/07/13 11:43:37;;;;;;;12.40;6.30;;;;;;;;;;5013271;28;20064;-55
2021/07/13 11:46:19;;;;;;;11.13;6.25;;;;;;;;;;5016282;28;20511;-56
2021/07/13 11:49:11;;;;;;;12.73;6.47;;;;;;;;;;5013297;28;20133;-58
2021/07/13 11:51:38;;;;;;;10.77;6.07;;;;;;;;;;5009633;28;20042;-54
2021/07/13 11:54:05;;;;;;;12.43;6.05;;;;;;;;;;5013324;28;20043;-56
2021/07/13 11:56:32;;;;;;;11.27;6.22;;;;;;;;;;5013618;28;20057;-55
2021/07/13 11:58:59;;;;;;;14.55;6.53;;;;;;;;;;5014478;28;20037;-56
2021/07/13 12:01:26;;;;;;;11.75;5.82;;;;;;;;;;5013847;28;20048;-56
2021/07/13 12:03:53;;;;;;;12.80;6.30;;;;;;;;;;5010573;28;20227;-57
2021/07/13 12:06:20;;;;;;;12.90;6.18;;;;;;;;;;5014574;28;20038;-58
2021/07/13 12:08:54;;;;;;;12.00;6.50;;;;;;;;;;5013242;28;20029;-58
2021/07/13 12:11:24;;;;;;;12.75;6.40;;;;;;;;;;5012728;28;20380;-57
2021/07/13 12:13:50;;;;;;;12.27;6.32;;;;;;;;;;5027763;28;20054;-58
2021/07/13 12:16:22;;;;;;;13.27;6.05;;;;;;;;;;5013263;28;20407;-56
2021/07/13 12:18:48;;;;;;;9.90;5.60;;;;;;;;;;5013018;28;20047;-57
2021/07/13 12:21:14;;;;;;;13.70;6.43;;;;;;;;;;5012325;28;20563;-57
2021/07/13 12:23:44;;;;;;;17.25;6.70;;;;;;;;;;5013097;28;20029;-57
2021/07/13 12:26:23;;;;;;;13.02;5.90;;;;;;;;;;5016159;28;20112;-56
2021/07/13 12:29:05;;;;;;;13.07;5.93;;;;;;;;;;5013673;28;20094;-57
2021/07/13 12:31:32;;;;;;;11.05;5.82;;;;;;;;;;5010279;28;20144;-57
2021/07/13 12:33:58;;;;;;;12.40;6.32;;;;;;;;;;5009762;28;20113;-56
2021/07/13 12:36:30;;;;;;;12.68;6.10;;;;;;;;;;5012008;28;20037;-56
2021/07/13 12:38:57;;;;;;;19.70;6.65;;;;;;;;;;5012484;28;20040;-56
2021/07/13 12:41:29;;;;;;;15.90;6.60;;;;;;;;;;5011904;28;20506;-56
2021/07/13 12:43:54;;;;;;;15.05;6.45;;;;;;;;;;5011370;28;20033;-56
2021/07/13 12:46:27;;;;;;;16.13;8.43;;;;;;;;;;5011644;28;20034;-56
2021/07/13 12:48:53;;;;;;;15.27;5.90;;;;;;;;;;5012318;28;20037;-54
2021/07/13 12:51:28;;;;;;;12.77;6.30;;;;;;;;;;5012239;28;20050;-57
2021/07/13 12:54:08;;;;;;;12.25;6.30;;;;;;;;;;5011795;28;20038;-57
2021/07/13 12:56:34;;;;;;;11.90;6.18;;;;;;;;;;5012311;28;20585;-56
2021/07/13 12:59:06;;;;;;;12.38;5.95;;;;;;;;;;5013033;28;20042;-54
2021/07/13 13:01:33;;;;;;;18.48;6.57;;;;;;;;;;5011486;28;20033;-57
2021/07/13 13:04:15;;;;;;;13.82;6.43;;;;;;;;;;5011108;28;20037;-56
2021/07/13 13:06:43;;;;;;;10.60;5.57;;;;;;;;;;5018909;28;20715;-57
2021/07/13 13:09:08;;;;;;;16.50;6.43;;;;;;;;;;5013650;28;20068;-56
2021/07/13 13:11:35;;;;;;;15.80;6.57;;;;;;;;;;5012210;28;21016;-57
2021/07/13 13:14:02;;;;;;;14.23;6.05;;;;;;;;;;5012758;28;20038;-57
2021/07/13 13:16:29;;;;;;;13.35;6.15;;;;;;;;;;5013112;28;20037;-57
2021/07/13 13:18:56;;;;;;;13.77;7.03;;;;;;;;;;5011529;28;20064;-57
2021/07/13 13:21:25;;;;;;;12.98;5.68;;;;;;;;;;5012369;28;20101;-56
2021/07/13 13:23:51;;;;;;;13.88;6.05;;;;;;;;;;5011393;28;20068;-58
2021/07/13 13:26:17;;;;;;;14.38;6.13;;;;;;;;;;5013353;28;20430;-57
2021/07/13 13:28:43;;;;;;;17.25;6.32;;;;;;;;;;5011082;28;20044;-57
2021/07/13 13:31:08;;;;;;;12.52;6.75;;;;;;;;;;5010921;28;20384;-58
2021/07/13 13:33:37;;;;;;;15.43;6.50;;;;;;;;;;5010158;28;20081;-57
2021/07/13 13:36:18;;;;;;;11.32;6.20;;;;;;;;;;5012625;28;20045;-58
2021/07/13 13:39:02;;;;;;;9.68;5.70;;;;;;;;;;5010073;28;20069;-56
2021/07/13 13:41:27;;;;;;;12.48;5.60;;;;;;;;;;5009539;28;20590;-57
2021/07/13 13:43:53;;;;;;;11.13;5.63;;;;;;;;;;5010800;28;20049;-58
2021/07/13 13:46:21;;;;;;;9.15;5.38;;;;;;;;;;5010200;28;20030;-57
2021/07/13 13:48:47;;;;;;;14.20;5.72;;;;;;;;;;5011180;28;20038;-57
2021/07/13 13:51:12;;;;;;;12.52;5.93;;;;;;;;;;5010711;28;20064;-57
2021/07/13 13:53:39;;;;;;;10.90;5.60;;;;;;;;;;5009718;28;20046;-57
2021/07/13 13:56:06;;;;;;;13.65;6.07;;;;;;;;;;5011709;28;20050;-57
2021/07/13 13:58:31;;;;;;;12.25;6.28;;;;;;;;;;5010128;28;20033;-58
2021/07/13 14:00:57;;;;;;;11.38;5.75;;;;;;;;;;5011678;28;20034;-58
2021/07/13 14:03:23;;;;;;;10.27;5.40;;;;;;;;;;5008997;28;20101;-57
2021/07/13 14:05:49;;;;;;;10.93;5.60;;;;;;;;;;5009905;28;20041;-58
2021/07/13 14:08:15;;;;;;;10.48;5.55;;;;;;;;;;5011600;28;20055;-57
2021/07/13 14:10:41;;;;;;;11.82;4.85;;;;;;;;;;5010043;28;20029;-58
2021/07/13 14:13:07;;;;;;;9.65;5.30;;;;;;;;;;5010719;28;20057;-58
2021/07/13 14:15:32;;;;;;;11.25;5.47;;;;;;;;;;5011712;28;20046;-58
2021/07/13 14:17:58;;;;;;;12.32;6.28;;;;;;;;;;5011798;28;20482;-57
2021/07/13 14:20:24;;;;;;;11.38;5.22;;;;;;;;;;5009377;28;20033;-57
2021/07/13 14:22:50;;;;;;;14.30;5.85;;;;;;;;;;5009564;28;20042;-58
2021/07/13 14:25:17;;;;;;;11.30;5.78;;;;;;;;;;5009009;28;20041;-57
2021/07/13 14:27:46;;;;;;;15.45;5.70;;;;;;;;;;5013892;28;20096;-57
2021/07/13 14:30:13;;;;;;;10.35;5.57;;;;;;;;;;5014959;28;20069;-57
2021/07/13 14:32:40;;;;;;;12.68;6.03;;;;;;;;;;5013415;28;20089;-57
2021/07/13 14:35:06;;;;;;;12.32;5.57;;;;;;;;;;5013594;28;20041;-57
2021/07/13 14:37:32;;;;;;;10.98;5.68;;;;;;;;;;5012318;28;20045;-57
2021/07/13 14:39:58;;;;;;;11.07;5.90;;;;;;;;;;5015527;28;20046;-58
2021/07/13 14:42:25;;;;;;;11.75;5.80;;;;;;;;;;5013218;28;20161;-57